CheckWX is a tool to help pilots better visualize weather data.  It is not intended as a substitute for an official pre-flight weather briefing.

07:13:04 UTC

KDCA METAR
Ronald Reagan Washington National Airport
Washington, District of Columbia, USA
Current

21 mins ago

KDCA 120652Z 25005KT 10SM FEW250 25/15 A2978 RMK AO2 SLP084 T02500150 $
Observed
Jul-12 @ 06:52 UTC
Wind
  • 250° at 5 KTS
Visibility
10 SM
Flight Rules
VFR
Cloud Levels
  • Few at 25,000' AGL
Temperature
25°C / 77°F
Dewpoint
15°C / 59°F
Humidity
54%
Altimeter
29.78" Hg
Pressure
1008.42 hPa
Previous

1 hour ago

KDCA 120552Z 27007KT 10SM FEW250 26/15 A2979 RMK AO2 SLP089 T02610150 10300 20250 50003
Observed
Jul-12 @ 05:52 UTC
Wind
  • 270° at 7 KTS
Visibility
10 SM
Flight Rules
VFR
Cloud Levels
  • Few at 25,000' AGL
Temperature
26°C / 79°F
Dewpoint
15°C / 59°F
Humidity
51%
Altimeter
29.79" Hg
Pressure
1008.82 hPa
Previous

2 hours ago

KDCA 120452Z 28007KT 10SM SCT250 27/16 A2980 RMK AO2 SLP089 T02670156 403390244
Observed
Jul-12 @ 04:52 UTC
Wind
  • 280° at 7 KTS
Visibility
10 SM
Flight Rules
VFR
Cloud Levels
  • Scattered at 25,000' AGL
Dewpoint
16°C / 61°F
Humidity
51%
Altimeter
29.8" Hg
Pressure
1009.12 hPa